sensor_id;sensor_type;location;lat;lon;timestamp;P1;durP1;ratioP1;P2;durP2;ratioP2
7903;SDS011;3997;48.416;8.512;2024-01-27T00:00:50;2.53;;;1.63;;
7903;SDS011;3997;48.416;8.512;2024-01-27T00:03:17;5.47;;;1.80;;
7903;SDS011;3997;48.416;8.512;2024-01-27T00:05:43;3.22;;;1.88;;
7903;SDS011;3997;48.416;8.512;2024-01-27T00:08:11;2.97;;;1.98;;
7903;SDS011;3997;48.416;8.512;2024-01-27T00:10:37;4.20;;;2.28;;
7903;SDS011;3997;48.416;8.512;2024-01-27T00:13:04;2.35;;;1.90;;
7903;SDS011;3997;48.416;8.512;2024-01-27T00:15:30;2.05;;;1.95;;
7903;SDS011;3997;48.416;8.512;2024-01-27T00:17:57;5.93;;;3.70;;
7903;SDS011;3997;48.416;8.512;2024-01-27T00:20:23;3.95;;;2.47;;
7903;SDS011;3997;48.416;8.512;2024-01-27T00:22:50;4.75;;;2.63;;
7903;SDS011;3997;48.416;8.512;2024-01-27T00:25:17;5.75;;;2.50;;
7903;SDS011;3997;48.416;8.512;2024-01-27T00:27:44;2.63;;;2.10;;
7903;SDS011;3997;48.416;8.512;2024-01-27T00:30:10;2.72;;;2.10;;
7903;SDS011;3997;48.416;8.512;2024-01-27T00:32:37;4.35;;;2.00;;
7903;SDS011;3997;48.416;8.512;2024-01-27T00:35:04;3.35;;;1.73;;
7903;SDS011;3997;48.416;8.512;2024-01-27T00:37:31;3.70;;;2.08;;
7903;SDS011;3997;48.416;8.512;2024-01-27T00:39:57;3.55;;;2.08;;
7903;SDS011;3997;48.416;8.512;2024-01-27T00:42:25;6.40;;;4.00;;
7903;SDS011;3997;48.416;8.512;2024-01-27T00:44:52;3.65;;;3.08;;
7903;SDS011;3997;48.416;8.512;2024-01-27T00:47:18;4.93;;;2.97;;
7903;SDS011;3997;48.416;8.512;2024-01-27T00:49:47;2.90;;;2.60;;
7903;SDS011;3997;48.416;8.512;2024-01-27T00:52:13;3.53;;;2.95;;
7903;SDS011;3997;48.416;8.512;2024-01-27T00:54:42;3.67;;;2.53;;
7903;SDS011;3997;48.416;8.512;2024-01-27T00:57:08;10.55;;;2.50;;
7903;SDS011;3997;48.416;8.512;2024-01-27T00:59:36;20.38;;;2.40;;
7903;SDS011;3997;48.416;8.512;2024-01-27T01:02:03;9.82;;;2.42;;
7903;SDS011;3997;48.416;8.512;2024-01-27T01:04:29;5.07;;;3.95;;
7903;SDS011;3997;48.416;8.512;2024-01-27T01:06:56;11.02;;;3.10;;
7903;SDS011;3997;48.416;8.512;2024-01-27T01:09:22;13.93;;;3.00;;
7903;SDS011;3997;48.416;8.512;2024-01-27T01:11:48;18.55;;;3.20;;
7903;SDS011;3997;48.416;8.512;2024-01-27T01:14:15;3.80;;;2.25;;
7903;SDS011;3997;48.416;8.512;2024-01-27T01:16:43;10.18;;;8.00;;
7903;SDS011;3997;48.416;8.512;2024-01-27T01:19:09;5.70;;;3.88;;
7903;SDS011;3997;48.416;8.512;2024-01-27T01:21:36;3.67;;;3.33;;
7903;SDS011;3997;48.416;8.512;2024-01-27T01:24:02;2.85;;;2.15;;
7903;SDS011;3997;48.416;8.512;2024-01-27T01:26:29;5.13;;;2.72;;
7903;SDS011;3997;48.416;8.512;2024-01-27T01:28:55;3.75;;;2.65;;
7903;SDS011;3997;48.416;8.512;2024-01-27T01:31:21;7.85;;;2.80;;
7903;SDS011;3997;48.416;8.512;2024-01-27T01:33:49;3.40;;;2.10;;
7903;SDS011;3997;48.416;8.512;2024-01-27T01:36:16;6.07;;;2.00;;
7903;SDS011;3997;48.416;8.512;2024-01-27T01:38:42;2.85;;;1.73;;
7903;SDS011;3997;48.416;8.512;2024-01-27T01:41:08;2.03;;;1.80;;
7903;SDS011;3997;48.416;8.512;2024-01-27T01:43:35;3.95;;;2.28;;
7903;SDS011;3997;48.416;8.512;2024-01-27T01:46:01;2.60;;;2.40;;
7903;SDS011;3997;48.416;8.512;2024-01-27T01:48:28;107.82;;;4.50;;
7903;SDS011;3997;48.416;8.512;2024-01-27T01:50:56;102.13;;;3.92;;
7903;SDS011;3997;48.416;8.512;2024-01-27T01:53:23;50.05;;;3.03;;
7903;SDS011;3997;48.416;8.512;2024-01-27T01:55:50;84.07;;;2.80;;
7903;SDS011;3997;48.416;8.512;2024-01-27T01:58:17;68.50;;;3.17;;
7903;SDS011;3997;48.416;8.512;2024-01-27T02:00:43;48.92;;;2.03;;
7903;SDS011;3997;48.416;8.512;2024-01-27T02:03:10;38.55;;;2.00;;
7903;SDS011;3997;48.416;8.512;2024-01-27T02:05:36;33.97;;;2.10;;
7903;SDS011;3997;48.416;8.512;2024-01-27T02:08:05;28.60;;;2.30;;
7903;SDS011;3997;48.416;8.512;2024-01-27T02:10:31;111.85;;;4.47;;
7903;SDS011;3997;48.416;8.512;2024-01-27T02:13:01;168.82;;;4.95;;
7903;SDS011;3997;48.416;8.512;2024-01-27T02:15:28;112.20;;;4.28;;
7903;SDS011;3997;48.416;8.512;2024-01-27T02:17:54;103.55;;;5.55;;
7903;SDS011;3997;48.416;8.512;2024-01-27T02:20:21;66.90;;;2.83;;
7903;SDS011;3997;48.416;8.512;2024-01-27T02:22:47;48.42;;;2.30;;
7903;SDS011;3997;48.416;8.512;2024-01-27T02:25:15;54.08;;;2.75;;
7903;SDS011;3997;48.416;8.512;2024-01-27T02:27:41;46.53;;;2.42;;
7903;SDS011;3997;48.416;8.512;2024-01-27T02:30:08;52.50;;;2.83;;
7903;SDS011;3997;48.416;8.512;2024-01-27T02:32:35;21.00;;;1.83;;
7903;SDS011;3997;48.416;8.512;2024-01-27T02:35:01;18.00;;;1.48;;
7903;SDS011;3997;48.416;8.512;2024-01-27T02:37:28;11.88;;;1.30;;
7903;SDS011;3997;48.416;8.512;2024-01-27T02:39:54;35.38;;;2.08;;
7903;SDS011;3997;48.416;8.512;2024-01-27T02:42:22;56.50;;;2.75;;
7903;SDS011;3997;48.416;8.512;2024-01-27T02:44:48;13.68;;;1.70;;
7903;SDS011;3997;48.416;8.512;2024-01-27T02:47:15;28.63;;;2.28;;
7903;SDS011;3997;48.416;8.512;2024-01-27T02:49:41;10.23;;;1.80;;
7903;SDS011;3997;48.416;8.512;2024-01-27T02:52:08;15.48;;;1.70;;
7903;SDS011;3997;48.416;8.512;2024-01-27T02:54:34;11.98;;;1.98;;
7903;SDS011;3997;48.416;8.512;2024-01-27T02:57:00;48.30;;;2.53;;
7903;SDS011;3997;48.416;8.512;2024-01-27T02:59:28;51.38;;;2.67;;
7903;SDS011;3997;48.416;8.512;2024-01-27T03:01:55;72.72;;;3.55;;
7903;SDS011;3997;48.416;8.512;2024-01-27T03:04:22;48.92;;;2.67;;
7903;SDS011;3997;48.416;8.512;2024-01-27T03:06:48;76.55;;;3.03;;
7903;SDS011;3997;48.416;8.512;2024-01-27T03:09:15;78.22;;;3.55;;
7903;SDS011;3997;48.416;8.512;2024-01-27T03:11:41;30.70;;;2.22;;
7903;SDS011;3997;48.416;8.512;2024-01-27T03:14:09;80.88;;;3.15;;
7903;SDS011;3997;48.416;8.512;2024-01-27T03:16:37;23.42;;;2.20;;
7903;SDS011;3997;48.416;8.512;2024-01-27T03:19:04;33.38;;;2.38;;
7903;SDS011;3997;48.416;8.512;2024-01-27T03:21:30;10.40;;;1.50;;
7903;SDS011;3997;48.416;8.512;2024-01-27T03:23:56;7.15;;;1.83;;
7903;SDS011;3997;48.416;8.512;2024-01-27T03:26:23;1.45;;;1.35;;
7903;SDS011;3997;48.416;8.512;2024-01-27T03:28:50;1.38;;;1.25;;
7903;SDS011;3997;48.416;8.512;2024-01-27T03:31:16;2.75;;;1.30;;
7903;SDS011;3997;48.416;8.512;2024-01-27T03:33:44;1.75;;;1.55;;
7903;SDS011;3997;48.416;8.512;2024-01-27T03:36:11;10.85;;;1.90;;
7903;SDS011;3997;48.416;8.512;2024-01-27T03:38:37;9.85;;;1.73;;
7903;SDS011;3997;48.416;8.512;2024-01-27T03:41:04;40.90;;;2.58;;
7903;SDS011;3997;48.416;8.512;2024-01-27T03:43:30;35.60;;;2.53;;
7903;SDS011;3997;48.416;8.512;2024-01-27T03:45:57;57.95;;;3.83;;
7903;SDS011;3997;48.416;8.512;2024-01-27T03:48:23;38.95;;;2.58;;
7903;SDS011;3997;48.416;8.512;2024-01-27T03:50:51;60.88;;;7.15;;
7903;SDS011;3997;48.416;8.512;2024-01-27T03:53:18;24.17;;;6.93;;
7903;SDS011;3997;48.416;8.512;2024-01-27T03:55:44;30.88;;;6.50;;
7903;SDS011;3997;48.416;8.512;2024-01-27T03:58:11;80.95;;;4.25;;
7903;SDS011;3997;48.416;8.512;2024-01-27T04:00:37;73.30;;;3.30;;
7903;SDS011;3997;48.416;8.512;2024-01-27T04:03:04;124.40;;;4.32;;
7903;SDS011;3997;48.416;8.512;2024-01-27T04:05:30;92.50;;;4.70;;
7903;SDS011;3997;48.416;8.512;2024-01-27T04:07:58;68.75;;;3.85;;
7903;SDS011;3997;48.416;8.512;2024-01-27T04:10:24;66.82;;;3.63;;
7903;SDS011;3997;48.416;8.512;2024-01-27T04:12:51;77.22;;;3.70;;
7903;SDS011;3997;48.416;8.512;2024-01-27T04:15:17;21.63;;;2.03;;
7903;SDS011;3997;48.416;8.512;2024-01-27T04:17:44;44.00;;;2.10;;
7903;SDS011;3997;48.416;8.512;2024-01-27T04:20:11;64.13;;;3.08;;
7903;SDS011;3997;48.416;8.512;2024-01-27T04:22:38;37.10;;;2.15;;
7903;SDS011;3997;48.416;8.512;2024-01-27T04:25:06;66.93;;;2.58;;
7903;SDS011;3997;48.416;8.512;2024-01-27T04:27:36;64.60;;;2.78;;
7903;SDS011;3997;48.416;8.512;2024-01-27T04:30:03;106.78;;;3.70;;
7903;SDS011;3997;48.416;8.512;2024-01-27T04:32:29;159.32;;;7.18;;
7903;SDS011;3997;48.416;8.512;2024-01-27T04:34:56;188.40;;;6.25;;
7903;SDS011;3997;48.416;8.512;2024-01-27T04:37:22;209.55;;;7.32;;
7903;SDS011;3997;48.416;8.512;2024-01-27T04:39:48;147.80;;;5.30;;
7903;SDS011;3997;48.416;8.512;2024-01-27T04:42:16;102.82;;;4.15;;
7903;SDS011;3997;48.416;8.512;2024-01-27T04:44:43;123.88;;;4.82;;
7903;SDS011;3997;48.416;8.512;2024-01-27T04:47:09;114.35;;;4.63;;
7903;SDS011;3997;48.416;8.512;2024-01-27T04:49:35;77.22;;;3.25;;
7903;SDS011;3997;48.416;8.512;2024-01-27T04:52:02;104.00;;;4.40;;
7903;SDS011;3997;48.416;8.512;2024-01-27T04:54:28;113.38;;;4.22;;
7903;SDS011;3997;48.416;8.512;2024-01-27T04:56:55;145.63;;;5.07;;
7903;SDS011;3997;48.416;8.512;2024-01-27T04:59:23;112.18;;;4.20;;
7903;SDS011;3997;48.416;8.512;2024-01-27T05:01:50;83.95;;;2.70;;
7903;SDS011;3997;48.416;8.512;2024-01-27T05:04:16;38.05;;;1.52;;
7903;SDS011;3997;48.416;8.512;2024-01-27T05:06:43;17.48;;;1.60;;
7903;SDS011;3997;48.416;8.512;2024-01-27T05:09:09;27.10;;;1.63;;
7903;SDS011;3997;48.416;8.512;2024-01-27T05:11:36;47.50;;;1.70;;
7903;SDS011;3997;48.416;8.512;2024-01-27T05:14:02;58.42;;;2.05;;
7903;SDS011;3997;48.416;8.512;2024-01-27T05:16:30;69.28;;;2.33;;
7903;SDS011;3997;48.416;8.512;2024-01-27T05:18:58;25.80;;;1.90;;
7903;SDS011;3997;48.416;8.512;2024-01-27T05:21:25;54.40;;;2.70;;
7903;SDS011;3997;48.416;8.512;2024-01-27T05:23:51;16.35;;;1.55;;
7903;SDS011;3997;48.416;8.512;2024-01-27T05:26:17;110.20;;;3.65;;
7903;SDS011;3997;48.416;8.512;2024-01-27T05:28:44;94.07;;;3.13;;
7903;SDS011;3997;48.416;8.512;2024-01-27T05:31:10;15.70;;;1.65;;
7903;SDS011;3997;48.416;8.512;2024-01-27T05:33:38;79.97;;;3.17;;
7903;SDS011;3997;48.416;8.512;2024-01-27T05:36:05;50.35;;;2.30;;
7903;SDS011;3997;48.416;8.512;2024-01-27T05:38:32;67.78;;;3.38;;
7903;SDS011;3997;48.416;8.512;2024-01-27T05:41:00;145.57;;;4.93;;
7903;SDS011;3997;48.416;8.512;2024-01-27T05:43:26;129.15;;;4.60;;
7903;SDS011;3997;48.416;8.512;2024-01-27T05:45:53;136.65;;;4.78;;
7903;SDS011;3997;48.416;8.512;2024-01-27T05:48:19;79.18;;;3.25;;
7903;SDS011;3997;48.416;8.512;2024-01-27T05:50:55;289.23;;;7.90;;
7903;SDS011;3997;48.416;8.512;2024-01-27T05:53:22;146.55;;;5.20;;
7903;SDS011;3997;48.416;8.512;2024-01-27T05:55:48;123.68;;;4.68;;
7903;SDS011;3997;48.416;8.512;2024-01-27T05:58:15;56.00;;;2.40;;
7903;SDS011;3997;48.416;8.512;2024-01-27T06:00:42;1.30;;;1.20;;
7903;SDS011;3997;48.416;8.512;2024-01-27T06:03:08;5.70;;;1.00;;
7903;SDS011;3997;48.416;8.512;2024-01-27T06:05:35;1.67;;;1.20;;
7903;SDS011;3997;48.416;8.512;2024-01-27T06:08:03;20.20;;;1.60;;
7903;SDS011;3997;48.416;8.512;2024-01-27T06:10:29;39.25;;;2.10;;
7903;SDS011;3997;48.416;8.512;2024-01-27T06:12:56;58.17;;;3.63;;
7903;SDS011;3997;48.416;8.512;2024-01-27T06:15:22;45.28;;;2.30;;
7903;SDS011;3997;48.416;8.512;2024-01-27T06:17:49;35.90;;;2.30;;
7903;SDS011;3997;48.416;8.512;2024-01-27T06:20:15;5.40;;;1.75;;
7903;SDS011;3997;48.416;8.512;2024-01-27T06:22:42;5.85;;;1.45;;
7903;SDS011;3997;48.416;8.512;2024-01-27T06:25:10;1.30;;;1.20;;
7903;SDS011;3997;48.416;8.512;2024-01-27T06:27:36;4.00;;;1.70;;
7903;SDS011;3997;48.416;8.512;2024-01-27T06:30:03;19.60;;;1.67;;
7903;SDS011;3997;48.416;8.512;2024-01-27T06:32:30;34.25;;;2.13;;
7903;SDS011;3997;48.416;8.512;2024-01-27T06:34:56;70.82;;;2.80;;
7903;SDS011;3997;48.416;8.512;2024-01-27T06:37:22;48.17;;;2.55;;
7903;SDS011;3997;48.416;8.512;2024-01-27T06:39:49;40.20;;;2.40;;
7903;SDS011;3997;48.416;8.512;2024-01-27T06:42:17;27.15;;;2.03;;
7903;SDS011;3997;48.416;8.512;2024-01-27T06:44:43;25.80;;;1.80;;
7903;SDS011;3997;48.416;8.512;2024-01-27T06:47:09;33.83;;;1.67;;
7903;SDS011;3997;48.416;8.512;2024-01-27T06:49:36;52.03;;;2.13;;
7903;SDS011;3997;48.416;8.512;2024-01-27T06:52:03;80.60;;;2.65;;
7903;SDS011;3997;48.416;8.512;2024-01-27T06:54:29;61.90;;;2.38;;
7903;SDS011;3997;48.416;8.512;2024-01-27T06:56:55;52.95;;;2.75;;
7903;SDS011;3997;48.416;8.512;2024-01-27T06:59:23;44.78;;;2.20;;
7903;SDS011;3997;48.416;8.512;2024-01-27T07:01:50;46.28;;;2.25;;
7903;SDS011;3997;48.416;8.512;2024-01-27T07:04:16;9.73;;;2.88;;
7903;SDS011;3997;48.416;8.512;2024-01-27T07:06:43;7.82;;;3.92;;
7903;SDS011;3997;48.416;8.512;2024-01-27T07:09:09;3.65;;;3.08;;
7903;SDS011;3997;48.416;8.512;2024-01-27T07:11:36;26.67;;;3.83;;
7903;SDS011;3997;48.416;8.512;2024-01-27T07:14:02;20.73;;;2.97;;
7903;SDS011;3997;48.416;8.512;2024-01-27T07:16:30;49.67;;;3.05;;
7903;SDS011;3997;48.416;8.512;2024-01-27T07:18:57;125.35;;;6.47;;
7903;SDS011;3997;48.416;8.512;2024-01-27T07:21:23;131.85;;;5.85;;
7903;SDS011;3997;48.416;8.512;2024-01-27T07:23:51;110.75;;;5.05;;
7903;SDS011;3997;48.416;8.512;2024-01-27T07:26:19;4.78;;;2.55;;
7903;SDS011;3997;48.416;8.512;2024-01-27T07:28:45;75.13;;;3.90;;
7903;SDS011;3997;48.416;8.512;2024-01-27T07:31:12;121.88;;;5.40;;
7903;SDS011;3997;48.416;8.512;2024-01-27T07:33:40;104.50;;;7.13;;
7903;SDS011;3997;48.416;8.512;2024-01-27T07:36:07;36.38;;;3.72;;
7903;SDS011;3997;48.416;8.512;2024-01-27T07:38:33;16.92;;;2.25;;
7903;SDS011;3997;48.416;8.512;2024-01-27T07:41:00;15.10;;;6.40;;
7903;SDS011;3997;48.416;8.512;2024-01-27T07:43:26;62.42;;;4.28;;
7903;SDS011;3997;48.416;8.512;2024-01-27T07:45:53;61.17;;;3.50;;
7903;SDS011;3997;48.416;8.512;2024-01-27T07:48:19;45.33;;;3.15;;
7903;SDS011;3997;48.416;8.512;2024-01-27T07:50:47;54.83;;;3.03;;
7903;SDS011;3997;48.416;8.512;2024-01-27T07:53:16;28.48;;;2.10;;
7903;SDS011;3997;48.416;8.512;2024-01-27T07:55:44;26.98;;;2.30;;
7903;SDS011;3997;48.416;8.512;2024-01-27T07:58:10;53.65;;;2.65;;
7903;SDS011;3997;48.416;8.512;2024-01-27T08:00:37;71.40;;;3.47;;
7903;SDS011;3997;48.416;8.512;2024-01-27T08:03:03;128.70;;;20.08;;
7903;SDS011;3997;48.416;8.512;2024-01-27T08:05:30;146.18;;;6.40;;
7903;SDS011;3997;48.416;8.512;2024-01-27T08:07:58;216.30;;;30.98;;
7903;SDS011;3997;48.416;8.512;2024-01-27T08:10:27;114.93;;;7.93;;
7903;SDS011;3997;48.416;8.512;2024-01-27T08:12:53;89.35;;;10.18;;
7903;SDS011;3997;48.416;8.512;2024-01-27T08:15:19;143.43;;;6.65;;
7903;SDS011;3997;48.416;8.512;2024-01-27T08:17:46;68.57;;;4.50;;
7903;SDS011;3997;48.416;8.512;2024-01-27T08:20:15;72.55;;;6.75;;
7903;SDS011;3997;48.416;8.512;2024-01-27T08:22:44;64.15;;;9.70;;
7903;SDS011;3997;48.416;8.512;2024-01-27T08:25:14;21.75;;;5.57;;
7903;SDS011;3997;48.416;8.512;2024-01-27T08:27:41;52.92;;;5.80;;
7903;SDS011;3997;48.416;8.512;2024-01-27T08:30:08;80.38;;;5.90;;
7903;SDS011;3997;48.416;8.512;2024-01-27T08:32:35;80.00;;;5.20;;
7903;SDS011;3997;48.416;8.512;2024-01-27T08:35:01;28.15;;;3.17;;
7903;SDS011;3997;48.416;8.512;2024-01-27T08:37:28;84.80;;;4.63;;
7903;SDS011;3997;48.416;8.512;2024-01-27T08:39:54;68.47;;;4.18;;
7903;SDS011;3997;48.416;8.512;2024-01-27T08:42:22;43.65;;;3.35;;
7903;SDS011;3997;48.416;8.512;2024-01-27T08:44:49;82.95;;;4.60;;
7903;SDS011;3997;48.416;8.512;2024-01-27T08:47:15;52.33;;;3.35;;
7903;SDS011;3997;48.416;8.512;2024-01-27T08:49:41;46.47;;;3.30;;
7903;SDS011;3997;48.416;8.512;2024-01-27T08:52:08;55.83;;;3.80;;
7903;SDS011;3997;48.416;8.512;2024-01-27T08:54:34;60.78;;;3.65;;
7903;SDS011;3997;48.416;8.512;2024-01-27T08:57:01;34.92;;;3.78;;
7903;SDS011;3997;48.416;8.512;2024-01-27T08:59:28;37.45;;;3.53;;
7903;SDS011;3997;48.416;8.512;2024-01-27T09:01:55;19.38;;;3.60;;
7903;SDS011;3997;48.416;8.512;2024-01-27T09:04:21;21.23;;;3.53;;
7903;SDS011;3997;48.416;8.512;2024-01-27T09:06:48;22.20;;;3.30;;
7903;SDS011;3997;48.416;8.512;2024-01-27T09:09:14;61.60;;;4.68;;
7903;SDS011;3997;48.416;8.512;2024-01-27T09:11:42;102.93;;;5.40;;
7903;SDS011;3997;48.416;8.512;2024-01-27T09:14:09;23.55;;;4.03;;
7903;SDS011;3997;48.416;8.512;2024-01-27T09:16:37;38.75;;;4.43;;
7903;SDS011;3997;48.416;8.512;2024-01-27T09:19:05;42.78;;;4.75;;
7903;SDS011;3997;48.416;8.512;2024-01-27T09:21:31;20.67;;;5.10;;
7903;SDS011;3997;48.416;8.512;2024-01-27T09:23:58;104.10;;;6.75;;
7903;SDS011;3997;48.416;8.512;2024-01-27T09:26:26;60.25;;;5.10;;
7903;SDS011;3997;48.416;8.512;2024-01-27T09:28:52;64.10;;;4.88;;
7903;SDS011;3997;48.416;8.512;2024-01-27T09:31:20;66.80;;;6.05;;
7903;SDS011;3997;48.416;8.512;2024-01-27T09:33:50;52.58;;;5.60;;
7903;SDS011;3997;48.416;8.512;2024-01-27T09:36:17;81.25;;;5.78;;
7903;SDS011;3997;48.416;8.512;2024-01-27T09:38:43;87.80;;;6.88;;
7903;SDS011;3997;48.416;8.512;2024-01-27T09:41:10;88.88;;;6.15;;
7903;SDS011;3997;48.416;8.512;2024-01-27T09:43:39;252.70;;;9.63;;
7903;SDS011;3997;48.416;8.512;2024-01-27T09:46:07;117.13;;;6.05;;
7903;SDS011;3997;48.416;8.512;2024-01-27T09:48:34;88.93;;;6.05;;
7903;SDS011;3997;48.416;8.512;2024-01-27T09:51:02;50.28;;;5.53;;
7903;SDS011;3997;48.416;8.512;2024-01-27T09:53:29;40.53;;;4.47;;
7903;SDS011;3997;48.416;8.512;2024-01-27T09:55:56;33.50;;;3.92;;
7903;SDS011;3997;48.416;8.512;2024-01-27T09:58:24;39.92;;;4.60;;
7903;SDS011;3997;48.416;8.512;2024-01-27T10:00:51;48.55;;;4.68;;
7903;SDS011;3997;48.416;8.512;2024-01-27T10:03:18;49.92;;;5.15;;
7903;SDS011;3997;48.416;8.512;2024-01-27T10:05:45;44.72;;;5.28;;
7903;SDS011;3997;48.416;8.512;2024-01-27T10:08:14;56.63;;;6.07;;
7903;SDS011;3997;48.416;8.512;2024-01-27T10:10:40;33.60;;;5.57;;
7903;SDS011;3997;48.416;8.512;2024-01-27T10:13:07;41.75;;;5.57;;
7903;SDS011;3997;48.416;8.512;2024-01-27T10:15:33;37.03;;;5.25;;
7903;SDS011;3997;48.416;8.512;2024-01-27T10:18:06;71.57;;;6.00;;
7903;SDS011;3997;48.416;8.512;2024-01-27T10:20:32;69.18;;;9.65;;
7903;SDS011;3997;48.416;8.512;2024-01-27T10:22:59;65.32;;;5.53;;
7903;SDS011;3997;48.416;8.512;2024-01-27T10:25:38;58.90;;;6.30;;
7903;SDS011;3997;48.416;8.512;2024-01-27T10:28:04;85.07;;;7.20;;
7903;SDS011;3997;48.416;8.512;2024-01-27T10:30:31;153.70;;;9.48;;
7903;SDS011;3997;48.416;8.512;2024-01-27T10:32:57;115.30;;;7.72;;
7903;SDS011;3997;48.416;8.512;2024-01-27T10:35:24;97.50;;;7.22;;
7903;SDS011;3997;48.416;8.512;2024-01-27T10:37:51;47.60;;;6.60;;
7903;SDS011;3997;48.416;8.512;2024-01-27T10:40:18;74.07;;;6.57;;
7903;SDS011;3997;48.416;8.512;2024-01-27T10:42:45;60.53;;;5.95;;
7903;SDS011;3997;48.416;8.512;2024-01-27T10:45:13;109.82;;;8.43;;
7903;SDS011;3997;48.416;8.512;2024-01-27T10:47:40;84.38;;;6.75;;
7903;SDS011;3997;48.416;8.512;2024-01-27T10:50:08;132.88;;;8.15;;
7903;SDS011;3997;48.416;8.512;2024-01-27T10:52:38;227.52;;;10.25;;
7903;SDS011;3997;48.416;8.512;2024-01-27T10:55:06;52.97;;;5.53;;
7903;SDS011;3997;48.416;8.512;2024-01-27T10:57:33;54.40;;;5.72;;
7903;SDS011;3997;48.416;8.512;2024-01-27T11:00:02;166.45;;;8.05;;
7903;SDS011;3997;48.416;8.512;2024-01-27T11:02:31;69.32;;;5.88;;
7903;SDS011;3997;48.416;8.512;2024-01-27T11:04:58;64.60;;;6.35;;
7903;SDS011;3997;48.416;8.512;2024-01-27T11:07:25;78.65;;;6.15;;
7903;SDS011;3997;48.416;8.512;2024-01-27T11:09:51;30.85;;;4.75;;
7903;SDS011;3997;48.416;8.512;2024-01-27T11:12:18;99.40;;;6.07;;
7903;SDS011;3997;48.416;8.512;2024-01-27T11:14:46;145.70;;;9.73;;
7903;SDS011;3997;48.416;8.512;2024-01-27T11:17:13;138.57;;;11.10;;
7903;SDS011;3997;48.416;8.512;2024-01-27T11:19:40;114.68;;;13.52;;
7903;SDS011;3997;48.416;8.512;2024-01-27T11:22:07;40.53;;;5.85;;
7903;SDS011;3997;48.416;8.512;2024-01-27T11:24:33;75.07;;;7.78;;
7903;SDS011;3997;48.416;8.512;2024-01-27T11:27:00;31.45;;;6.20;;
7903;SDS011;3997;48.416;8.512;2024-01-27T11:29:26;36.03;;;4.93;;
7903;SDS011;3997;48.416;8.512;2024-01-27T11:31:54;13.25;;;5.28;;
7903;SDS011;3997;48.416;8.512;2024-01-27T11:34:23;195.90;;;10.88;;
7903;SDS011;3997;48.416;8.512;2024-01-27T11:36:49;123.28;;;7.15;;
7903;SDS011;3997;48.416;8.512;2024-01-27T11:39:25;192.40;;;8.75;;
7903;SDS011;3997;48.416;8.512;2024-01-27T11:41:52;44.13;;;6.07;;
7903;SDS011;3997;48.416;8.512;2024-01-27T11:44:19;103.90;;;17.10;;
7903;SDS011;3997;48.416;8.512;2024-01-27T11:46:47;123.38;;;7.20;;
7903;SDS011;3997;48.416;8.512;2024-01-27T11:49:14;158.65;;;11.95;;
7903;SDS011;3997;48.416;8.512;2024-01-27T11:51:42;140.23;;;7.45;;
7903;SDS011;3997;48.416;8.512;2024-01-27T11:54:09;22.10;;;4.68;;
7903;SDS011;3997;48.416;8.512;2024-01-27T11:56:35;90.25;;;7.35;;
7903;SDS011;3997;48.416;8.512;2024-01-27T11:59:02;63.65;;;7.72;;
7903;SDS011;3997;48.416;8.512;2024-01-27T12:01:28;67.50;;;6.40;;
7903;SDS011;3997;48.416;8.512;2024-01-27T12:03:55;98.18;;;8.02;;
7903;SDS011;3997;48.416;8.512;2024-01-27T12:06:21;72.57;;;8.90;;
7903;SDS011;3997;48.416;8.512;2024-01-27T12:08:52;7.28;;;5.55;;
7903;SDS011;3997;48.416;8.512;2024-01-27T12:11:18;11.27;;;4.60;;
7903;SDS011;3997;48.416;8.512;2024-01-27T12:13:45;10.38;;;4.60;;
7903;SDS011;3997;48.416;8.512;2024-01-27T12:16:11;17.30;;;4.95;;
7903;SDS011;3997;48.416;8.512;2024-01-27T12:18:38;104.55;;;7.85;;
7903;SDS011;3997;48.416;8.512;2024-01-27T12:21:04;90.60;;;7.15;;
7903;SDS011;3997;48.416;8.512;2024-01-27T12:23:31;11.38;;;4.10;;
7903;SDS011;3997;48.416;8.512;2024-01-27T12:25:58;20.45;;;4.70;;
7903;SDS011;3997;48.416;8.512;2024-01-27T12:28:25;14.93;;;4.70;;
7903;SDS011;3997;48.416;8.512;2024-01-27T12:30:52;30.77;;;4.65;;
7903;SDS011;3997;48.416;8.512;2024-01-27T12:33:19;18.23;;;5.22;;
7903;SDS011;3997;48.416;8.512;2024-01-27T12:35:49;14.50;;;4.63;;
7903;SDS011;3997;48.416;8.512;2024-01-27T12:38:17;7.15;;;4.43;;
7903;SDS011;3997;48.416;8.512;2024-01-27T12:40:43;23.17;;;5.10;;
7903;SDS011;3997;48.416;8.512;2024-01-27T12:43:11;14.90;;;5.38;;
7903;SDS011;3997;48.416;8.512;2024-01-27T12:45:37;17.58;;;4.90;;
7903;SDS011;3997;48.416;8.512;2024-01-27T12:48:04;8.10;;;5.90;;
7903;SDS011;3997;48.416;8.512;2024-01-27T12:50:31;8.68;;;5.28;;
7903;SDS011;3997;48.416;8.512;2024-01-27T12:52:58;12.98;;;4.53;;
7903;SDS011;3997;48.416;8.512;2024-01-27T12:55:25;17.77;;;4.78;;
7903;SDS011;3997;48.416;8.512;2024-01-27T12:57:51;69.28;;;6.25;;
7903;SDS011;3997;48.416;8.512;2024-01-27T13:00:19;24.08;;;5.20;;
7903;SDS011;3997;48.416;8.512;2024-01-27T13:02:46;24.83;;;4.88;;
7903;SDS011;3997;48.416;8.512;2024-01-27T13:05:13;11.85;;;8.30;;
7903;SDS011;3997;48.416;8.512;2024-01-27T13:07:39;10.48;;;5.20;;
7903;SDS011;3997;48.416;8.512;2024-01-27T13:10:06;14.55;;;5.47;;
7903;SDS011;3997;48.416;8.512;2024-01-27T13:12:32;18.23;;;5.13;;
7903;SDS011;3997;48.416;8.512;2024-01-27T13:15:00;25.20;;;5.85;;
7903;SDS011;3997;48.416;8.512;2024-01-27T13:17:28;11.20;;;5.00;;
7903;SDS011;3997;48.416;8.512;2024-01-27T13:19:54;68.15;;;7.72;;
7903;SDS011;3997;48.416;8.512;2024-01-27T13:22:20;31.20;;;4.80;;
7903;SDS011;3997;48.416;8.512;2024-01-27T13:24:49;54.22;;;5.97;;
7903;SDS011;3997;48.416;8.512;2024-01-27T13:27:16;79.70;;;6.60;;
7903;SDS011;3997;48.416;8.512;2024-01-27T13:29:42;38.83;;;6.90;;
7903;SDS011;3997;48.416;8.512;2024-01-27T13:32:10;94.28;;;6.63;;
7903;SDS011;3997;48.416;8.512;2024-01-27T13:34:38;59.97;;;5.93;;
7903;SDS011;3997;48.416;8.512;2024-01-27T13:37:04;39.55;;;5.32;;
7903;SDS011;3997;48.416;8.512;2024-01-27T13:39:31;60.60;;;7.50;;
7903;SDS011;3997;48.416;8.512;2024-01-27T13:41:57;33.10;;;8.48;;
7903;SDS011;3997;48.416;8.512;2024-01-27T13:44:24;47.50;;;6.72;;
7903;SDS011;3997;48.416;8.512;2024-01-27T13:46:51;55.53;;;5.63;;
7903;SDS011;3997;48.416;8.512;2024-01-27T13:49:18;35.47;;;5.22;;
7903;SDS011;3997;48.416;8.512;2024-01-27T13:51:47;23.95;;;5.38;;
7903;SDS011;3997;48.416;8.512;2024-01-27T13:54:13;22.75;;;4.82;;
7903;SDS011;3997;48.416;8.512;2024-01-27T13:56:40;47.90;;;5.88;;
7903;SDS011;3997;48.416;8.512;2024-01-27T13:59:07;45.60;;;5.03;;
7903;SDS011;3997;48.416;8.512;2024-01-27T14:01:34;21.92;;;4.68;;
7903;SDS011;3997;48.416;8.512;2024-01-27T14:04:00;7.03;;;4.45;;
7903;SDS011;3997;48.416;8.512;2024-01-27T14:06:27;12.63;;;4.40;;
7903;SDS011;3997;48.416;8.512;2024-01-27T14:08:54;18.73;;;4.65;;
7903;SDS011;3997;48.416;8.512;2024-01-27T14:11:21;17.55;;;4.78;;
7903;SDS011;3997;48.416;8.512;2024-01-27T14:13:47;9.45;;;4.88;;
7903;SDS011;3997;48.416;8.512;2024-01-27T14:16:14;5.72;;;4.22;;
7903;SDS011;3997;48.416;8.512;2024-01-27T14:18:40;5.05;;;4.32;;
7903;SDS011;3997;48.416;8.512;2024-01-27T14:21:07;5.53;;;4.68;;
7903;SDS011;3997;48.416;8.512;2024-01-27T14:23:34;4.85;;;4.28;;
7903;SDS011;3997;48.416;8.512;2024-01-27T14:26:02;7.15;;;4.40;;
7903;SDS011;3997;48.416;8.512;2024-01-27T14:28:28;7.03;;;5.00;;
7903;SDS011;3997;48.416;8.512;2024-01-27T14:30:55;5.20;;;4.70;;
7903;SDS011;3997;48.416;8.512;2024-01-27T14:33:21;6.03;;;4.18;;
7903;SDS011;3997;48.416;8.512;2024-01-27T14:35:48;4.45;;;3.78;;
7903;SDS011;3997;48.416;8.512;2024-01-27T14:38:15;6.00;;;5.05;;
7903;SDS011;3997;48.416;8.512;2024-01-27T14:40:42;7.55;;;5.63;;
7903;SDS011;3997;48.416;8.512;2024-01-27T14:43:09;8.40;;;6.03;;
7903;SDS011;3997;48.416;8.512;2024-01-27T14:45:37;9.27;;;6.50;;
7903;SDS011;3997;48.416;8.512;2024-01-27T14:48:04;12.73;;;7.85;;
7903;SDS011;3997;48.416;8.512;2024-01-27T14:50:30;9.63;;;6.43;;
7903;SDS011;3997;48.416;8.512;2024-01-27T14:52:57;13.07;;;8.02;;
7903;SDS011;3997;48.416;8.512;2024-01-27T14:55:24;9.07;;;5.10;;
7903;SDS011;3997;48.416;8.512;2024-01-27T14:57:51;3.65;;;3.25;;
7903;SDS011;3997;48.416;8.512;2024-01-27T15:00:19;3.65;;;3.35;;